sensor_id;sensor_type;location;lat;lon;timestamp;P1;durP1;ratioP1;P2;durP2;ratioP2
16640;SDS011;8434;47.990;7.880;2023-09-18T00:02:36;2.73;;;1.30;;
16640;SDS011;8434;47.990;7.880;2023-09-18T00:05:21;15.23;;;2.20;;
16640;SDS011;8434;47.990;7.880;2023-09-18T00:08:07;11.02;;;2.08;;
16640;SDS011;8434;47.990;7.880;2023-09-18T00:10:54;8.20;;;3.00;;
16640;SDS011;8434;47.990;7.880;2023-09-18T00:13:39;6.38;;;2.35;;
16640;SDS011;8434;47.990;7.880;2023-09-18T00:16:25;9.98;;;2.97;;
16640;SDS011;8434;47.990;7.880;2023-09-18T00:19:11;10.07;;;4.03;;
16640;SDS011;8434;47.990;7.880;2023-09-18T00:21:56;10.67;;;2.90;;
16640;SDS011;8434;47.990;7.880;2023-09-18T00:24:45;6.03;;;2.50;;
16640;SDS011;8434;47.990;7.880;2023-09-18T00:27:31;7.43;;;2.83;;
16640;SDS011;8434;47.990;7.880;2023-09-18T00:30:17;5.97;;;2.60;;
16640;SDS011;8434;47.990;7.880;2023-09-18T00:33:02;7.73;;;3.00;;
16640;SDS011;8434;47.990;7.880;2023-09-18T00:35:48;4.60;;;2.63;;
16640;SDS011;8434;47.990;7.880;2023-09-18T00:38:33;5.57;;;3.00;;
16640;SDS011;8434;47.990;7.880;2023-09-18T00:41:19;6.77;;;3.00;;
16640;SDS011;8434;47.990;7.880;2023-09-18T00:44:06;10.73;;;3.13;;
16640;SDS011;8434;47.990;7.880;2023-09-18T00:46:51;7.67;;;2.70;;
16640;SDS011;8434;47.990;7.880;2023-09-18T00:49:38;9.27;;;3.03;;
16640;SDS011;8434;47.990;7.880;2023-09-18T00:52:25;12.27;;;3.37;;
16640;SDS011;8434;47.990;7.880;2023-09-18T00:55:11;8.03;;;2.50;;
16640;SDS011;8434;47.990;7.880;2023-09-18T00:57:57;6.47;;;2.33;;
16640;SDS011;8434;47.990;7.880;2023-09-18T01:00:44;11.50;;;3.73;;
16640;SDS011;8434;47.990;7.880;2023-09-18T01:03:29;8.63;;;2.80;;
16640;SDS011;8434;47.990;7.880;2023-09-18T01:06:16;8.70;;;2.53;;
16640;SDS011;8434;47.990;7.880;2023-09-18T01:09:04;7.07;;;2.63;;
16640;SDS011;8434;47.990;7.880;2023-09-18T01:12:00;13.97;;;3.67;;
16640;SDS011;8434;47.990;7.880;2023-09-18T01:14:49;8.90;;;3.67;;
16640;SDS011;8434;47.990;7.880;2023-09-18T01:17:37;9.03;;;2.87;;
16640;SDS011;8434;47.990;7.880;2023-09-18T01:20:24;12.77;;;4.60;;
16640;SDS011;8434;47.990;7.880;2023-09-18T01:23:11;19.07;;;3.83;;
16640;SDS011;8434;47.990;7.880;2023-09-18T01:25:57;10.20;;;3.17;;
16640;SDS011;8434;47.990;7.880;2023-09-18T01:28:42;5.93;;;3.10;;
16640;SDS011;8434;47.990;7.880;2023-09-18T01:31:28;10.63;;;2.93;;
16640;SDS011;8434;47.990;7.880;2023-09-18T01:34:13;10.83;;;3.70;;
16640;SDS011;8434;47.990;7.880;2023-09-18T01:36:59;7.63;;;2.83;;
16640;SDS011;8434;47.990;7.880;2023-09-18T01:39:48;10.00;;;3.87;;
16640;SDS011;8434;47.990;7.880;2023-09-18T01:42:34;8.90;;;3.57;;
16640;SDS011;8434;47.990;7.880;2023-09-18T01:45:20;6.83;;;2.97;;
16640;SDS011;8434;47.990;7.880;2023-09-18T01:48:05;8.53;;;3.03;;
16640;SDS011;8434;47.990;7.880;2023-09-18T01:50:51;9.20;;;3.37;;
16640;SDS011;8434;47.990;7.880;2023-09-18T01:53:37;4.20;;;2.80;;
16640;SDS011;8434;47.990;7.880;2023-09-18T01:56:26;9.70;;;3.37;;
16640;SDS011;8434;47.990;7.880;2023-09-18T01:59:11;7.90;;;3.00;;
16640;SDS011;8434;47.990;7.880;2023-09-18T02:01:56;7.83;;;2.67;;
16640;SDS011;8434;47.990;7.880;2023-09-18T02:04:42;6.07;;;2.63;;
16640;SDS011;8434;47.990;7.880;2023-09-18T02:07:28;9.20;;;3.33;;
16640;SDS011;8434;47.990;7.880;2023-09-18T02:10:14;8.37;;;3.13;;
16640;SDS011;8434;47.990;7.880;2023-09-18T02:13:01;10.70;;;3.13;;
16640;SDS011;8434;47.990;7.880;2023-09-18T02:15:47;13.60;;;3.87;;
16640;SDS011;8434;47.990;7.880;2023-09-18T02:18:33;6.53;;;2.90;;
16640;SDS011;8434;47.990;7.880;2023-09-18T02:21:18;10.10;;;3.80;;
16640;SDS011;8434;47.990;7.880;2023-09-18T02:24:05;9.13;;;3.27;;
16640;SDS011;8434;47.990;7.880;2023-09-18T02:26:50;13.17;;;3.47;;
16640;SDS011;8434;47.990;7.880;2023-09-18T02:29:37;9.13;;;3.63;;
16640;SDS011;8434;47.990;7.880;2023-09-18T02:32:23;10.00;;;4.67;;
16640;SDS011;8434;47.990;7.880;2023-09-18T02:35:08;18.60;;;5.63;;
16640;SDS011;8434;47.990;7.880;2023-09-18T02:37:54;14.53;;;4.50;;
16640;SDS011;8434;47.990;7.880;2023-09-18T02:40:39;16.50;;;4.17;;
16640;SDS011;8434;47.990;7.880;2023-09-18T02:46:11;10.37;;;3.73;;
16640;SDS011;8434;47.990;7.880;2023-09-18T02:48:56;8.07;;;2.73;;
16640;SDS011;8434;47.990;7.880;2023-09-18T02:51:42;9.37;;;3.03;;
16640;SDS011;8434;47.990;7.880;2023-09-18T02:54:27;12.27;;;3.10;;
16640;SDS011;8434;47.990;7.880;2023-09-18T02:57:13;9.17;;;3.00;;
16640;SDS011;8434;47.990;7.880;2023-09-18T02:59:58;9.07;;;3.00;;
16640;SDS011;8434;47.990;7.880;2023-09-18T03:02:45;8.00;;;2.97;;
16640;SDS011;8434;47.990;7.880;2023-09-18T03:05:31;5.73;;;2.20;;
16640;SDS011;8434;47.990;7.880;2023-09-18T03:08:17;5.70;;;2.10;;
16640;SDS011;8434;47.990;7.880;2023-09-18T03:11:02;7.57;;;2.27;;
16640;SDS011;8434;47.990;7.880;2023-09-18T03:13:48;6.30;;;1.90;;
16640;SDS011;8434;47.990;7.880;2023-09-18T03:16:36;4.97;;;2.00;;
16640;SDS011;8434;47.990;7.880;2023-09-18T03:19:23;2.10;;;1.37;;
16640;SDS011;8434;47.990;7.880;2023-09-18T03:22:11;3.57;;;1.30;;
16640;SDS011;8434;47.990;7.880;2023-09-18T03:24:56;9.70;;;2.00;;
16640;SDS011;8434;47.990;7.880;2023-09-18T03:27:42;4.73;;;1.70;;
16640;SDS011;8434;47.990;7.880;2023-09-18T03:30:27;4.27;;;1.80;;
16640;SDS011;8434;47.990;7.880;2023-09-18T03:33:13;9.43;;;2.90;;
16640;SDS011;8434;47.990;7.880;2023-09-18T03:36:00;7.33;;;2.37;;
16640;SDS011;8434;47.990;7.880;2023-09-18T03:38:49;3.20;;;1.80;;
16640;SDS011;8434;47.990;7.880;2023-09-18T03:41:35;10.53;;;2.83;;
16640;SDS011;8434;47.990;7.880;2023-09-18T03:44:21;4.00;;;2.00;;
16640;SDS011;8434;47.990;7.880;2023-09-18T03:47:07;3.43;;;2.10;;
16640;SDS011;8434;47.990;7.880;2023-09-18T03:49:53;5.37;;;2.00;;
16640;SDS011;8434;47.990;7.880;2023-09-18T03:52:40;5.47;;;1.93;;
16640;SDS011;8434;47.990;7.880;2023-09-18T03:55:26;6.10;;;2.30;;
16640;SDS011;8434;47.990;7.880;2023-09-18T03:58:11;3.60;;;1.77;;
16640;SDS011;8434;47.990;7.880;2023-09-18T04:00:57;6.43;;;2.47;;
16640;SDS011;8434;47.990;7.880;2023-09-18T04:03:42;8.63;;;2.33;;
16640;SDS011;8434;47.990;7.880;2023-09-18T04:06:35;3.83;;;1.87;;
16640;SDS011;8434;47.990;7.880;2023-09-18T04:09:22;25.23;;;4.87;;
16640;SDS011;8434;47.990;7.880;2023-09-18T04:12:07;5.57;;;1.70;;
16640;SDS011;8434;47.990;7.880;2023-09-18T04:14:53;4.27;;;1.50;;
16640;SDS011;8434;47.990;7.880;2023-09-18T04:17:40;3.30;;;1.83;;
16640;SDS011;8434;47.990;7.880;2023-09-18T04:20:25;5.27;;;1.80;;
16640;SDS011;8434;47.990;7.880;2023-09-18T04:23:18;5.03;;;1.23;;
16640;SDS011;8434;47.990;7.880;2023-09-18T04:26:05;23.37;;;4.00;;
16640;SDS011;8434;47.990;7.880;2023-09-18T04:28:50;5.93;;;1.40;;
16640;SDS011;8434;47.990;7.880;2023-09-18T04:31:37;3.97;;;2.27;;
16640;SDS011;8434;47.990;7.880;2023-09-18T04:34:22;5.83;;;1.83;;
16640;SDS011;8434;47.990;7.880;2023-09-18T04:37:08;5.00;;;2.20;;
16640;SDS011;8434;47.990;7.880;2023-09-18T04:39:53;6.67;;;1.87;;
16640;SDS011;8434;47.990;7.880;2023-09-18T04:42:42;3.93;;;1.90;;
16640;SDS011;8434;47.990;7.880;2023-09-18T04:45:28;8.63;;;2.47;;
16640;SDS011;8434;47.990;7.880;2023-09-18T04:48:14;4.27;;;2.20;;
16640;SDS011;8434;47.990;7.880;2023-09-18T04:50:59;13.90;;;3.27;;
16640;SDS011;8434;47.990;7.880;2023-09-18T04:53:46;6.73;;;1.70;;
16640;SDS011;8434;47.990;7.880;2023-09-18T04:56:31;5.20;;;1.80;;
16640;SDS011;8434;47.990;7.880;2023-09-18T04:59:18;5.13;;;2.10;;
16640;SDS011;8434;47.990;7.880;2023-09-18T05:02:04;6.83;;;2.00;;
16640;SDS011;8434;47.990;7.880;2023-09-18T05:04:49;7.47;;;2.30;;
16640;SDS011;8434;47.990;7.880;2023-09-18T05:07:35;5.97;;;2.00;;
16640;SDS011;8434;47.990;7.880;2023-09-18T05:10:20;6.70;;;2.20;;
16640;SDS011;8434;47.990;7.880;2023-09-18T05:13:06;6.37;;;1.97;;
16640;SDS011;8434;47.990;7.880;2023-09-18T05:15:53;4.30;;;1.97;;
16640;SDS011;8434;47.990;7.880;2023-09-18T05:18:39;4.10;;;1.80;;
16640;SDS011;8434;47.990;7.880;2023-09-18T05:21:25;5.80;;;2.20;;
16640;SDS011;8434;47.990;7.880;2023-09-18T05:24:11;5.43;;;2.17;;
16640;SDS011;8434;47.990;7.880;2023-09-18T05:26:56;4.30;;;1.97;;
16640;SDS011;8434;47.990;7.880;2023-09-18T05:29:44;4.77;;;1.47;;
16640;SDS011;8434;47.990;7.880;2023-09-18T05:32:31;4.73;;;2.10;;
16640;SDS011;8434;47.990;7.880;2023-09-18T05:35:17;4.70;;;2.10;;
16640;SDS011;8434;47.990;7.880;2023-09-18T05:38:02;6.57;;;1.93;;
16640;SDS011;8434;47.990;7.880;2023-09-18T05:40:47;7.00;;;3.97;;
16640;SDS011;8434;47.990;7.880;2023-09-18T05:43:33;4.60;;;1.93;;
16640;SDS011;8434;47.990;7.880;2023-09-18T05:46:19;5.27;;;1.80;;
16640;SDS011;8434;47.990;7.880;2023-09-18T05:49:05;4.37;;;1.73;;
16640;SDS011;8434;47.990;7.880;2023-09-18T05:51:51;4.13;;;1.90;;
16640;SDS011;8434;47.990;7.880;2023-09-18T05:54:41;3.13;;;1.93;;
16640;SDS011;8434;47.990;7.880;2023-09-18T05:57:26;6.53;;;2.00;;
16640;SDS011;8434;47.990;7.880;2023-09-18T06:00:12;5.77;;;2.07;;
16640;SDS011;8434;47.990;7.880;2023-09-18T06:03:00;7.77;;;2.60;;
16640;SDS011;8434;47.990;7.880;2023-09-18T06:05:47;3.00;;;1.00;;
16640;SDS011;8434;47.990;7.880;2023-09-18T06:08:32;5.13;;;1.70;;
16640;SDS011;8434;47.990;7.880;2023-09-18T06:11:17;5.47;;;1.47;;
16640;SDS011;8434;47.990;7.880;2023-09-18T06:14:03;3.40;;;1.20;;
16640;SDS011;8434;47.990;7.880;2023-09-18T06:16:48;8.57;;;1.93;;
16640;SDS011;8434;47.990;7.880;2023-09-18T06:19:34;6.57;;;1.40;;
16640;SDS011;8434;47.990;7.880;2023-09-18T06:22:21;4.10;;;1.47;;
16640;SDS011;8434;47.990;7.880;2023-09-18T06:25:06;1.93;;;1.23;;
16640;SDS011;8434;47.990;7.880;2023-09-18T06:27:54;2.97;;;1.40;;
16640;SDS011;8434;47.990;7.880;2023-09-18T06:30:39;6.00;;;2.67;;
16640;SDS011;8434;47.990;7.880;2023-09-18T06:33:24;3.60;;;1.80;;
16640;SDS011;8434;47.990;7.880;2023-09-18T06:36:10;3.73;;;1.30;;
16640;SDS011;8434;47.990;7.880;2023-09-18T06:38:57;3.60;;;1.43;;
16640;SDS011;8434;47.990;7.880;2023-09-18T06:41:42;4.77;;;1.20;;
16640;SDS011;8434;47.990;7.880;2023-09-18T06:44:30;2.73;;;1.27;;
16640;SDS011;8434;47.990;7.880;2023-09-18T06:47:19;2.13;;;1.07;;
16640;SDS011;8434;47.990;7.880;2023-09-18T06:50:04;4.70;;;1.20;;
16640;SDS011;8434;47.990;7.880;2023-09-18T06:52:50;3.27;;;1.23;;
16640;SDS011;8434;47.990;7.880;2023-09-18T06:55:37;3.37;;;1.50;;
16640;SDS011;8434;47.990;7.880;2023-09-18T06:58:22;4.70;;;2.00;;
16640;SDS011;8434;47.990;7.880;2023-09-18T07:01:08;4.20;;;1.60;;
16640;SDS011;8434;47.990;7.880;2023-09-18T07:03:54;6.40;;;1.43;;
16640;SDS011;8434;47.990;7.880;2023-09-18T07:06:40;3.13;;;1.27;;
16640;SDS011;8434;47.990;7.880;2023-09-18T07:09:25;3.37;;;1.40;;
16640;SDS011;8434;47.990;7.880;2023-09-18T07:12:12;4.50;;;2.70;;
16640;SDS011;8434;47.990;7.880;2023-09-18T07:17:43;2.33;;;1.37;;
16640;SDS011;8434;47.990;7.880;2023-09-18T07:20:29;2.90;;;1.60;;
16640;SDS011;8434;47.990;7.880;2023-09-18T07:23:14;4.17;;;1.50;;
16640;SDS011;8434;47.990;7.880;2023-09-18T07:26:00;4.83;;;1.70;;
16640;SDS011;8434;47.990;7.880;2023-09-18T07:28:47;10.60;;;2.27;;
16640;SDS011;8434;47.990;7.880;2023-09-18T07:31:33;3.20;;;2.03;;
16640;SDS011;8434;47.990;7.880;2023-09-18T07:34:19;5.77;;;2.10;;
16640;SDS011;8434;47.990;7.880;2023-09-18T07:37:04;6.50;;;2.00;;
16640;SDS011;8434;47.990;7.880;2023-09-18T07:39:50;3.67;;;1.90;;
16640;SDS011;8434;47.990;7.880;2023-09-18T07:42:35;4.07;;;1.90;;
16640;SDS011;8434;47.990;7.880;2023-09-18T07:45:23;3.40;;;1.60;;
16640;SDS011;8434;47.990;7.880;2023-09-18T07:48:09;6.13;;;2.53;;
16640;SDS011;8434;47.990;7.880;2023-09-18T07:50:54;5.83;;;2.10;;
16640;SDS011;8434;47.990;7.880;2023-09-18T07:53:40;5.73;;;1.73;;
16640;SDS011;8434;47.990;7.880;2023-09-18T07:56:25;7.60;;;2.40;;
16640;SDS011;8434;47.990;7.880;2023-09-18T07:59:11;4.63;;;1.93;;
16640;SDS011;8434;47.990;7.880;2023-09-18T08:02:00;6.00;;;2.20;;
16640;SDS011;8434;47.990;7.880;2023-09-18T08:04:45;7.40;;;1.83;;
16640;SDS011;8434;47.990;7.880;2023-09-18T08:07:30;5.07;;;2.10;;
16640;SDS011;8434;47.990;7.880;2023-09-18T08:10:16;4.70;;;2.10;;
16640;SDS011;8434;47.990;7.880;2023-09-18T08:13:01;3.90;;;2.17;;
16640;SDS011;8434;47.990;7.880;2023-09-18T08:15:47;4.80;;;1.53;;
16640;SDS011;8434;47.990;7.880;2023-09-18T08:18:34;1.87;;;1.30;;
16640;SDS011;8434;47.990;7.880;2023-09-18T08:21:19;2.93;;;1.93;;
16640;SDS011;8434;47.990;7.880;2023-09-18T08:24:05;2.40;;;1.37;;
16640;SDS011;8434;47.990;7.880;2023-09-18T08:26:50;5.33;;;1.77;;
16640;SDS011;8434;47.990;7.880;2023-09-18T08:29:36;7.97;;;2.30;;
16640;SDS011;8434;47.990;7.880;2023-09-18T08:32:21;2.70;;;1.53;;
16640;SDS011;8434;47.990;7.880;2023-09-18T08:35:09;4.73;;;1.70;;
16640;SDS011;8434;47.990;7.880;2023-09-18T08:37:54;5.70;;;1.90;;
16640;SDS011;8434;47.990;7.880;2023-09-18T08:40:40;4.60;;;1.80;;
16640;SDS011;8434;47.990;7.880;2023-09-18T08:43:26;2.63;;;0.93;;
16640;SDS011;8434;47.990;7.880;2023-09-18T08:46:12;3.87;;;2.20;;
16640;SDS011;8434;47.990;7.880;2023-09-18T08:48:57;5.23;;;2.20;;
16640;SDS011;8434;47.990;7.880;2023-09-18T08:51:45;3.67;;;2.17;;
16640;SDS011;8434;47.990;7.880;2023-09-18T08:54:31;5.50;;;1.40;;
16640;SDS011;8434;47.990;7.880;2023-09-18T08:57:17;32.37;;;10.53;;
16640;SDS011;8434;47.990;7.880;2023-09-18T09:00:03;2.37;;;1.07;;
16640;SDS011;8434;47.990;7.880;2023-09-18T09:02:51;2.83;;;0.70;;
16640;SDS011;8434;47.990;7.880;2023-09-18T09:05:38;2.97;;;0.80;;
16640;SDS011;8434;47.990;7.880;2023-09-18T09:08:25;2.87;;;0.90;;
16640;SDS011;8434;47.990;7.880;2023-09-18T09:11:10;2.83;;;1.43;;
16640;SDS011;8434;47.990;7.880;2023-09-18T09:14:09;1.17;;;0.80;;
16640;SDS011;8434;47.990;7.880;2023-09-18T09:16:55;1.60;;;1.03;;
16640;SDS011;8434;47.990;7.880;2023-09-18T09:19:41;1.63;;;0.80;;
16640;SDS011;8434;47.990;7.880;2023-09-18T09:22:27;2.47;;;1.03;;
16640;SDS011;8434;47.990;7.880;2023-09-18T09:25:22;6.37;;;2.23;;
16640;SDS011;8434;47.990;7.880;2023-09-18T09:28:08;1.27;;;0.83;;
16640;SDS011;8434;47.990;7.880;2023-09-18T09:30:54;4.67;;;1.10;;
16640;SDS011;8434;47.990;7.880;2023-09-18T09:33:49;3.27;;;1.27;;
16640;SDS011;8434;47.990;7.880;2023-09-18T09:36:35;3.03;;;0.90;;
16640;SDS011;8434;47.990;7.880;2023-09-18T09:39:20;3.97;;;1.10;;
16640;SDS011;8434;47.990;7.880;2023-09-18T09:42:10;6.30;;;1.13;;
16640;SDS011;8434;47.990;7.880;2023-09-18T09:45:00;3.30;;;1.20;;
16640;SDS011;8434;47.990;7.880;2023-09-18T09:47:46;1.87;;;1.00;;
16640;SDS011;8434;47.990;7.880;2023-09-18T09:50:31;3.13;;;1.10;;
16640;SDS011;8434;47.990;7.880;2023-09-18T09:53:17;2.73;;;1.40;;
16640;SDS011;8434;47.990;7.880;2023-09-18T09:56:02;1.17;;;0.90;;
16640;SDS011;8434;47.990;7.880;2023-09-18T09:59:01;3.93;;;1.30;;
16640;SDS011;8434;47.990;7.880;2023-09-18T10:01:48;2.90;;;0.87;;
16640;SDS011;8434;47.990;7.880;2023-09-18T10:04:34;3.70;;;1.57;;
16640;SDS011;8434;47.990;7.880;2023-09-18T10:07:20;3.10;;;0.97;;
16640;SDS011;8434;47.990;7.880;2023-09-18T10:10:07;3.23;;;1.33;;
16640;SDS011;8434;47.990;7.880;2023-09-18T10:12:52;2.30;;;0.97;;
16640;SDS011;8434;47.990;7.880;2023-09-18T10:15:40;2.47;;;0.87;;
16640;SDS011;8434;47.990;7.880;2023-09-18T10:18:27;1.80;;;1.10;;
16640;SDS011;8434;47.990;7.880;2023-09-18T10:21:14;4.17;;;1.10;;
16640;SDS011;8434;47.990;7.880;2023-09-18T10:24:05;2.73;;;1.30;;
16640;SDS011;8434;47.990;7.880;2023-09-18T10:26:54;3.63;;;0.90;;
16640;SDS011;8434;47.990;7.880;2023-09-18T10:29:41;2.43;;;1.07;;
16640;SDS011;8434;47.990;7.880;2023-09-18T10:32:29;1.23;;;0.80;;
16640;SDS011;8434;47.990;7.880;2023-09-18T10:35:16;1.87;;;1.10;;
16640;SDS011;8434;47.990;7.880;2023-09-18T10:38:01;4.20;;;1.17;;
16640;SDS011;8434;47.990;7.880;2023-09-18T10:40:47;1.73;;;1.00;;
16640;SDS011;8434;47.990;7.880;2023-09-18T10:43:32;3.30;;;1.53;;
16640;SDS011;8434;47.990;7.880;2023-09-18T10:46:18;1.07;;;0.87;;
16640;SDS011;8434;47.990;7.880;2023-09-18T10:49:05;3.23;;;0.97;;
16640;SDS011;8434;47.990;7.880;2023-09-18T10:51:52;2.40;;;1.10;;
16640;SDS011;8434;47.990;7.880;2023-09-18T10:54:39;1.20;;;0.90;;
16640;SDS011;8434;47.990;7.880;2023-09-18T10:57:24;1.70;;;1.03;;
16640;SDS011;8434;47.990;7.880;2023-09-18T11:00:10;1.33;;;0.70;;
16640;SDS011;8434;47.990;7.880;2023-09-18T11:03:10;1.33;;;0.80;;
16640;SDS011;8434;47.990;7.880;2023-09-18T11:06:04;2.23;;;0.90;;
16640;SDS011;8434;47.990;7.880;2023-09-18T11:08:49;1.42;;;0.80;;
16640;SDS011;8434;47.990;7.880;2023-09-18T11:11:37;2.22;;;0.80;;
16640;SDS011;8434;47.990;7.880;2023-09-18T11:14:22;1.80;;;0.90;;
16640;SDS011;8434;47.990;7.880;2023-09-18T11:20:09;3.60;;;1.02;;
16640;SDS011;8434;47.990;7.880;2023-09-18T11:23:09;8.07;;;1.63;;
16640;SDS011;8434;47.990;7.880;2023-09-18T11:25:56;2.45;;;0.75;;
16640;SDS011;8434;47.990;7.880;2023-09-18T11:28:41;2.47;;;0.90;;
16640;SDS011;8434;47.990;7.880;2023-09-18T11:31:43;3.28;;;1.30;;
16640;SDS011;8434;47.990;7.880;2023-09-18T11:34:29;2.42;;;0.57;;
16640;SDS011;8434;47.990;7.880;2023-09-18T11:37:20;2.53;;;0.80;;
16640;SDS011;8434;47.990;7.880;2023-09-18T11:40:07;2.55;;;1.08;;
16640;SDS011;8434;47.990;7.880;2023-09-18T11:43:18;3.38;;;0.80;;
16640;SDS011;8434;47.990;7.880;2023-09-18T11:46:07;1.92;;;0.80;;
16640;SDS011;8434;47.990;7.880;2023-09-18T11:48:53;1.40;;;1.02;;
16640;SDS011;8434;47.990;7.880;2023-09-18T11:51:39;2.40;;;0.70;;
16640;SDS011;8434;47.990;7.880;2023-09-18T11:54:24;1.73;;;0.80;;
16640;SDS011;8434;47.990;7.880;2023-09-18T11:57:11;1.35;;;1.02;;
16640;SDS011;8434;47.990;7.880;2023-09-18T11:59:57;1.65;;;0.50;;
16640;SDS011;8434;47.990;7.880;2023-09-18T12:02:55;1.27;;;0.80;;
16640;SDS011;8434;47.990;7.880;2023-09-18T12:05:41;2.50;;;0.85;;
16640;SDS011;8434;47.990;7.880;2023-09-18T12:08:28;1.20;;;0.80;;
16640;SDS011;8434;47.990;7.880;2023-09-18T12:11:14;2.33;;;1.70;;
16640;SDS011;8434;47.990;7.880;2023-09-18T12:14:04;1.23;;;0.98;;
16640;SDS011;8434;47.990;7.880;2023-09-18T12:16:50;2.88;;;1.10;;
16640;SDS011;8434;47.990;7.880;2023-09-18T12:19:35;0.70;;;0.70;;
16640;SDS011;8434;47.990;7.880;2023-09-18T12:22:25;1.45;;;0.80;;
16640;SDS011;8434;47.990;7.880;2023-09-18T12:25:10;3.25;;;0.85;;
16640;SDS011;8434;47.990;7.880;2023-09-18T12:27:56;4.93;;;1.30;;
16640;SDS011;8434;47.990;7.880;2023-09-18T12:30:44;1.02;;;0.80;;
16640;SDS011;8434;47.990;7.880;2023-09-18T12:33:33;1.40;;;0.73;;
16640;SDS011;8434;47.990;7.880;2023-09-18T12:36:19;1.25;;;0.98;;
16640;SDS011;8434;47.990;7.880;2023-09-18T12:39:05;2.20;;;0.88;;
16640;SDS011;8434;47.990;7.880;2023-09-18T12:41:51;3.80;;;0.90;;
16640;SDS011;8434;47.990;7.880;2023-09-18T12:44:37;5.13;;;0.90;;
16640;SDS011;8434;47.990;7.880;2023-09-18T12:47:23;1.40;;;0.60;;
16640;SDS011;8434;47.990;7.880;2023-09-18T12:50:12;1.23;;;0.60;;
16640;SDS011;8434;47.990;7.880;2023-09-18T12:53:06;1.90;;;0.60;;
16640;SDS011;8434;47.990;7.880;2023-09-18T12:55:51;2.35;;;0.90;;
16640;SDS011;8434;47.990;7.880;2023-09-18T12:58:37;1.52;;;0.90;;
16640;SDS011;8434;47.990;7.880;2023-09-18T13:01:22;1.25;;;0.60;;
16640;SDS011;8434;47.990;7.880;2023-09-18T13:04:12;1.00;;;0.80;;
16640;SDS011;8434;47.990;7.880;2023-09-18T13:07:06;1.80;;;0.65;;
16640;SDS011;8434;47.990;7.880;2023-09-18T13:09:58;3.80;;;0.90;;
16640;SDS011;8434;47.990;7.880;2023-09-18T13:12:47;3.88;;;0.85;;
16640;SDS011;8434;47.990;7.880;2023-09-18T13:15:34;0.82;;;0.73;;
16640;SDS011;8434;47.990;7.880;2023-09-18T13:18:19;1.83;;;0.80;;
16640;SDS011;8434;47.990;7.880;2023-09-18T13:21:10;0.80;;;0.70;;
16640;SDS011;8434;47.990;7.880;2023-09-18T13:23:56;1.73;;;0.68;;
16640;SDS011;8434;47.990;7.880;2023-09-18T13:26:41;1.50;;;0.70;;
16640;SDS011;8434;47.990;7.880;2023-09-18T13:29:27;2.70;;;0.80;;
16640;SDS011;8434;47.990;7.880;2023-09-18T13:32:12;2.78;;;0.80;;
16640;SDS011;8434;47.990;7.880;2023-09-18T13:34:58;1.55;;;0.85;;
16640;SDS011;8434;47.990;7.880;2023-09-18T13:37:45;1.95;;;0.60;;
16640;SDS011;8434;47.990;7.880;2023-09-18T13:40:31;1.92;;;0.70;;
16640;SDS011;8434;47.990;7.880;2023-09-18T13:43:17;1.48;;;0.65;;
16640;SDS011;8434;47.990;7.880;2023-09-18T13:46:05;0.98;;;0.60;;
16640;SDS011;8434;47.990;7.880;2023-09-18T13:48:51;1.55;;;0.82;;
16640;SDS011;8434;47.990;7.880;2023-09-18T13:51:36;1.33;;;0.90;;
16640;SDS011;8434;47.990;7.880;2023-09-18T13:54:23;1.48;;;0.90;;
16640;SDS011;8434;47.990;7.880;2023-09-18T13:57:09;1.60;;;0.90;;
16640;SDS011;8434;47.990;7.880;2023-09-18T13:59:54;2.15;;;1.05;;
16640;SDS011;8434;47.990;7.880;2023-09-18T14:02:40;1.40;;;0.73;;
16640;SDS011;8434;47.990;7.880;2023-09-18T14:05:26;2.08;;;1.23;;
16640;SDS011;8434;47.990;7.880;2023-09-18T14:08:12;2.22;;;0.80;;
16640;SDS011;8434;47.990;7.880;2023-09-18T14:10:59;1.55;;;0.90;;
16640;SDS011;8434;47.990;7.880;2023-09-18T14:13:45;2.70;;;0.95;;
16640;SDS011;8434;47.990;7.880;2023-09-18T14:16:50;2.55;;;0.80;;
16640;SDS011;8434;47.990;7.880;2023-09-18T14:19:36;1.45;;;0.70;;
16640;SDS011;8434;47.990;7.880;2023-09-18T14:22:22;1.42;;;0.75;;
16640;SDS011;8434;47.990;7.880;2023-09-18T14:25:07;2.95;;;0.60;;
16640;SDS011;8434;47.990;7.880;2023-09-18T14:27:54;1.38;;;0.80;;
16640;SDS011;8434;47.990;7.880;2023-09-18T14:30:40;0.95;;;0.80;;
16640;SDS011;8434;47.990;7.880;2023-09-18T14:33:26;1.52;;;1.38;;
16640;SDS011;8434;47.990;7.880;2023-09-18T14:36:11;2.10;;;0.75;;
16640;SDS011;8434;47.990;7.880;2023-09-18T14:38:57;1.85;;;0.80;;
16640;SDS011;8434;47.990;7.880;2023-09-18T14:41:43;2.33;;;0.80;;
16640;SDS011;8434;47.990;7.880;2023-09-18T14:44:30;1.40;;;0.90;;
16640;SDS011;8434;47.990;7.880;2023-09-18T14:47:15;2.08;;;0.90;;
16640;SDS011;8434;47.990;7.880;2023-09-18T14:50:01;1.73;;;0.80;;
16640;SDS011;8434;47.990;7.880;2023-09-18T14:52:48;2.63;;;0.80;;
16640;SDS011;8434;47.990;7.880;2023-09-18T14:55:34;4.10;;;1.42;;
16640;SDS011;8434;47.990;7.880;2023-09-18T14:58:20;3.88;;;1.30;;
16640;SDS011;8434;47.990;7.880;2023-09-18T15:01:08;1.95;;;0.82;;
16640;SDS011;8434;47.990;7.880;2023-09-18T15:03:54;1.60;;;1.13;;
16640;SDS011;8434;47.990;7.880;2023-09-18T15:06:39;2.88;;;0.85;;
16640;SDS011;8434;47.990;7.880;2023-09-18T15:09:25;2.78;;;0.95;;
16640;SDS011;8434;47.990;7.880;2023-09-18T15:12:10;1.50;;;1.00;;
16640;SDS011;8434;47.990;7.880;2023-09-18T15:14:55;2.28;;;1.02;;
16640;SDS011;8434;47.990;7.880;2023-09-18T15:17:42;2.65;;;1.10;;
16640;SDS011;8434;47.990;7.880;2023-09-18T15:20:28;2.58;;;1.10;;
16640;SDS011;8434;47.990;7.880;2023-09-18T15:23:13;0.80;;;0.80;;
16640;SDS011;8434;47.990;7.880;2023-09-18T15:25:59;2.30;;;1.00;;
16640;SDS011;8434;47.990;7.880;2023-09-18T15:28:45;3.75;;;1.20;;
16640;SDS011;8434;47.990;7.880;2023-09-18T15:31:30;0.98;;;0.80;;
16640;SDS011;8434;47.990;7.880;2023-09-18T15:34:17;2.58;;;1.23;;
16640;SDS011;8434;47.990;7.880;2023-09-18T15:37:03;4.75;;;1.52;;
16640;SDS011;8434;47.990;7.880;2023-09-18T15:39:49;1.33;;;1.00;;
16640;SDS011;8434;47.990;7.880;2023-09-18T15:42:35;1.45;;;0.95;;
16640;SDS011;8434;47.990;7.880;2023-09-18T15:45:20;2.20;;;0.80;;
16640;SDS011;8434;47.990;7.880;2023-09-18T15:48:07;3.53;;;0.90;;
16640;SDS011;8434;47.990;7.880;2023-09-18T15:50:54;2.45;;;0.95;;
16640;SDS011;8434;47.990;7.880;2023-09-18T15:53:39;2.05;;;1.20;;
16640;SDS011;8434;47.990;7.880;2023-09-18T15:56:24;4.22;;;1.05;;
16640;SDS011;8434;47.990;7.880;2023-09-18T15:59:10;3.70;;;1.25;;
16640;SDS011;8434;47.990;7.880;2023-09-18T16:01:55;1.27;;;0.88;;
16640;SDS011;8434;47.990;7.880;2023-09-18T16:04:41;1.90;;;1.13;;
16640;SDS011;8434;47.990;7.880;2023-09-18T16:07:28;1.38;;;1.00;;
16640;SDS011;8434;47.990;7.880;2023-09-18T16:10:15;2.70;;;1.02;;
16640;SDS011;8434;47.990;7.880;2023-09-18T16:13:01;2.63;;;1.10;;
16640;SDS011;8434;47.990;7.880;2023-09-18T16:15:47;3.72;;;1.10;;
16640;SDS011;8434;47.990;7.880;2023-09-18T16:18:32;3.22;;;1.15;;
16640;SDS011;8434;47.990;7.880;2023-09-18T16:21:18;3.80;;;1.13;;
16640;SDS011;8434;47.990;7.880;2023-09-18T16:24:05;2.42;;;1.05;;
16640;SDS011;8434;47.990;7.880;2023-09-18T16:26:52;5.00;;;1.80;;
16640;SDS011;8434;47.990;7.880;2023-09-18T16:29:37;2.22;;;1.00;;
16640;SDS011;8434;47.990;7.880;2023-09-18T16:32:23;3.10;;;1.50;;
16640;SDS011;8434;47.990;7.880;2023-09-18T16:35:08;3.88;;;1.30;;
16640;SDS011;8434;47.990;7.880;2023-09-18T16:37:54;2.78;;;1.20;;
16640;SDS011;8434;47.990;7.880;2023-09-18T16:40:41;2.08;;;1.10;;
16640;SDS011;8434;47.990;7.880;2023-09-18T16:43:26;6.18;;;1.30;;
16640;SDS011;8434;47.990;7.880;2023-09-18T16:46:11;2.30;;;0.90;;
16640;SDS011;8434;47.990;7.880;2023-09-18T16:48:57;3.63;;;1.67;;
16640;SDS011;8434;47.990;7.880;2023-09-18T16:51:42;3.35;;;1.55;;
16640;SDS011;8434;47.990;7.880;2023-09-18T16:54:27;2.08;;;1.20;;
16640;SDS011;8434;47.990;7.880;2023-09-18T16:57:14;2.42;;;1.58;;
16640;SDS011;8434;47.990;7.880;2023-09-18T17:00:00;3.25;;;1.42;;
16640;SDS011;8434;47.990;7.880;2023-09-18T17:02:46;2.95;;;0.95;;
16640;SDS011;8434;47.990;7.880;2023-09-18T17:05:32;2.33;;;1.13;;
16640;SDS011;8434;47.990;7.880;2023-09-18T17:08:19;2.97;;;1.10;;